sensor_id;sensor_type;location;lat;lon;timestamp;pressure;altitude;pressure_sealevel;temperature;humidity
6599;BME280;3335;43.198;27.918;2022-10-04T00:01:52;150706.28;;;13.82;100.00
6599;BME280;3335;43.198;27.918;2022-10-04T00:04:24;150731.28;;;13.92;100.00
6599;BME280;3335;43.198;27.918;2022-10-04T00:06:59;150726.28;;;13.90;100.00
6599;BME280;3335;43.198;27.918;2022-10-04T00:09:32;150443.34;;;12.76;100.00
6599;BME280;3335;43.198;27.918;2022-10-04T00:12:03;150656.19;;;13.62;100.00
6599;BME280;3335;43.198;27.918;2022-10-04T00:14:35;150698.72;;;13.79;100.00
6599;BME280;3335;43.198;27.918;2022-10-04T00:17:08;150692.50;;;13.77;100.00
6599;BME280;3335;43.198;27.918;2022-10-04T00:19:42;150688.72;;;13.75;100.00
6599;BME280;3335;43.198;27.918;2022-10-04T00:22:19;150681.22;;;13.72;100.00
6599;BME280;3335;43.198;27.918;2022-10-04T00:25:13;150671.22;;;13.68;100.00
6599;BME280;3335;43.198;27.918;2022-10-04T00:31:23;150616.09;;;13.46;100.00
6599;BME280;3335;43.198;27.918;2022-10-04T00:33:54;150611.13;;;13.44;100.00
6599;BME280;3335;43.198;27.918;2022-10-04T00:36:46;150676.19;;;13.70;100.00
6599;BME280;3335;43.198;27.918;2022-10-04T00:39:17;150673.69;;;13.69;100.00
6599;BME280;3335;43.198;27.918;2022-10-04T00:42:00;150679.97;;;13.72;100.00
6599;BME280;3335;43.198;27.918;2022-10-04T00:44:33;150659.94;;;13.64;100.00
6599;BME280;3335;43.198;27.918;2022-10-04T00:47:16;150684.94;;;13.74;100.00
6599;BME280;3335;43.198;27.918;2022-10-04T00:49:50;150437.06;;;12.73;100.00
6599;BME280;3335;43.198;27.918;2022-10-04T00:52:24;150666.19;;;13.66;100.00
6599;BME280;3335;43.198;27.918;2022-10-04T00:54:56;150643.66;;;13.57;100.00
6599;BME280;3335;43.198;27.918;2022-10-04T00:57:27;150654.91;;;13.62;100.00
6599;BME280;3335;43.198;27.918;2022-10-04T01:00:00;150657.44;;;13.63;100.00
6599;BME280;3335;43.198;27.918;2022-10-04T01:02:33;150634.91;;;13.53;100.00
6599;BME280;3335;43.198;27.918;2022-10-04T01:05:06;150518.44;;;13.06;100.00
6599;BME280;3335;43.198;27.918;2022-10-04T01:07:39;150631.13;;;13.52;100.00
6599;BME280;3335;43.198;27.918;2022-10-04T01:10:11;150611.13;;;13.44;100.00
6599;BME280;3335;43.198;27.918;2022-10-04T01:12:45;150541.03;;;13.16;100.00
6599;BME280;3335;43.198;27.918;2022-10-04T01:15:22;150598.59;;;13.39;100.00
6599;BME280;3335;43.198;27.918;2022-10-04T01:18:31;150603.56;;;13.41;100.00
6599;BME280;3335;43.198;27.918;2022-10-04T01:21:02;150588.59;;;13.35;100.00
6599;BME280;3335;43.198;27.918;2022-10-04T01:23:35;150578.53;;;13.31;100.00
6599;BME280;3335;43.198;27.918;2022-10-04T01:26:04;150582.31;;;13.32;100.00
6599;BME280;3335;43.198;27.918;2022-10-04T01:28:33;150573.56;;;13.29;100.00
6599;BME280;3335;43.198;27.918;2022-10-04T01:31:03;150548.50;;;13.19;100.00
6599;BME280;3335;43.198;27.918;2022-10-04T01:33:30;150480.91;;;12.91;100.00
6599;BME280;3335;43.198;27.918;2022-10-04T01:35:59;150534.75;;;13.13;100.00
6599;BME280;3335;43.198;27.918;2022-10-04T01:38:27;150513.41;;;13.04;100.00
6599;BME280;3335;43.198;27.918;2022-10-04T01:40:59;150556.00;;;13.22;100.00
6599;BME280;3335;43.198;27.918;2022-10-04T01:43:31;150553.53;;;13.21;100.00
6599;BME280;3335;43.198;27.918;2022-10-04T01:46:06;150500.91;;;12.99;100.00
6599;BME280;3335;43.198;27.918;2022-10-04T01:48:36;150308.22;;;12.21;100.00
6599;BME280;3335;43.198;27.918;2022-10-04T01:51:12;150572.28;;;13.28;100.00
6599;BME280;3335;43.198;27.918;2022-10-04T01:53:47;150480.91;;;12.91;100.00
6599;BME280;3335;43.198;27.918;2022-10-04T01:56:22;150563.53;;;13.25;100.00
6599;BME280;3335;43.198;27.918;2022-10-04T01:58:54;150574.81;;;13.29;100.00
6599;BME280;3335;43.198;27.918;2022-10-04T02:01:27;150568.53;;;13.27;100.00
6599;BME280;3335;43.198;27.918;2022-10-04T02:03:59;150556.00;;;13.22;100.00
6599;BME280;3335;43.198;27.918;2022-10-04T02:06:30;150561.03;;;13.24;100.00
6599;BME280;3335;43.198;27.918;2022-10-04T02:09:07;150513.41;;;13.04;100.00
6599;BME280;3335;43.198;27.918;2022-10-04T02:11:39;150490.91;;;12.95;100.00
6599;BME280;3335;43.198;27.918;2022-10-04T02:14:11;150554.75;;;13.21;100.00
6599;BME280;3335;43.198;27.918;2022-10-04T02:16:41;150548.50;;;13.19;100.00
6599;BME280;3335;43.198;27.918;2022-10-04T02:19:10;150546.00;;;13.18;100.00
6599;BME280;3335;43.198;27.918;2022-10-04T02:21:38;150544.75;;;13.17;100.00
6599;BME280;3335;43.198;27.918;2022-10-04T02:24:08;150536.00;;;13.13;100.00
6599;BME280;3335;43.198;27.918;2022-10-04T02:26:37;150503.41;;;13.00;100.00
6599;BME280;3335;43.198;27.918;2022-10-04T02:29:05;150250.69;;;11.98;100.00
6599;BME280;3335;43.198;27.918;2022-10-04T02:31:32;150515.94;;;13.05;100.00
6599;BME280;3335;43.198;27.918;2022-10-04T02:34:17;150508.41;;;13.02;100.00
6599;BME280;3335;43.198;27.918;2022-10-04T02:36:45;150408.31;;;12.62;100.00
6599;BME280;3335;43.198;27.918;2022-10-04T02:39:21;150488.38;;;12.94;100.00
6599;BME280;3335;43.198;27.918;2022-10-04T02:41:54;150410.84;;;12.63;100.00
6599;BME280;3335;43.198;27.918;2022-10-04T02:44:27;150435.84;;;12.73;100.00
6599;BME280;3335;43.198;27.918;2022-10-04T02:47:06;150368.25;;;12.46;100.00
6599;BME280;3335;43.198;27.918;2022-10-04T02:49:40;150478.38;;;12.90;100.00
6599;BME280;3335;43.198;27.918;2022-10-04T02:52:12;150458.38;;;12.82;100.00
6599;BME280;3335;43.198;27.918;2022-10-04T02:54:44;150463.34;;;12.84;100.00
6599;BME280;3335;43.198;27.918;2022-10-04T02:57:20;150455.88;;;12.81;100.00
6599;BME280;3335;43.198;27.918;2022-10-04T02:59:49;150458.38;;;12.82;100.00
6599;BME280;3335;43.198;27.918;2022-10-04T03:02:22;150450.84;;;12.79;100.00
6599;BME280;3335;43.198;27.918;2022-10-04T03:04:51;150463.34;;;12.84;100.00
6599;BME280;3335;43.198;27.918;2022-10-04T03:07:20;150404.56;;;12.60;100.00
6599;BME280;3335;43.198;27.918;2022-10-04T03:09:49;150404.56;;;12.60;100.00
6599;BME280;3335;43.198;27.918;2022-10-04T03:12:19;150433.34;;;12.72;100.00
6599;BME280;3335;43.198;27.918;2022-10-04T03:14:48;150439.56;;;12.75;100.00
6599;BME280;3335;43.198;27.918;2022-10-04T03:17:18;150233.22;;;11.91;100.00
6599;BME280;3335;43.198;27.918;2022-10-04T03:19:47;150413.28;;;12.64;100.00
6599;BME280;3335;43.198;27.918;2022-10-04T03:22:19;150415.81;;;12.65;100.00
6599;BME280;3335;43.198;27.918;2022-10-04T03:24:52;150438.31;;;12.74;100.00
6599;BME280;3335;43.198;27.918;2022-10-04T03:27:25;150413.28;;;12.64;100.00
6599;BME280;3335;43.198;27.918;2022-10-04T03:29:55;150245.72;;;11.96;100.00
6599;BME280;3335;43.198;27.918;2022-10-04T03:32:24;150417.06;;;12.65;100.00
6599;BME280;3335;43.198;27.918;2022-10-04T03:34:56;150423.34;;;12.68;100.00
6599;BME280;3335;43.198;27.918;2022-10-04T03:37:25;150409.56;;;12.62;100.00
6599;BME280;3335;43.198;27.918;2022-10-04T03:39:54;150128.16;;;11.49;100.00
6599;BME280;3335;43.198;27.918;2022-10-04T03:42:26;150380.78;;;12.51;100.00
6599;BME280;3335;43.198;27.918;2022-10-04T03:44:58;150382.03;;;12.51;100.00
6599;BME280;3335;43.198;27.918;2022-10-04T03:47:28;150323.25;;;12.27;100.00
6599;BME280;3335;43.198;27.918;2022-10-04T03:50:00;150357.00;;;12.41;100.00
6599;BME280;3335;43.198;27.918;2022-10-04T03:52:31;150345.75;;;12.37;100.00
6599;BME280;3335;43.198;27.918;2022-10-04T03:55:03;150330.78;;;12.31;100.00
6599;BME280;3335;43.198;27.918;2022-10-04T03:57:36;150270.75;;;12.06;100.00
6599;BME280;3335;43.198;27.918;2022-10-04T04:00:04;150354.50;;;12.40;100.00
6599;BME280;3335;43.198;27.918;2022-10-04T04:02:36;150335.75;;;12.33;100.00
6599;BME280;3335;43.198;27.918;2022-10-04T04:05:11;150014.38;;;11.03;100.00
6599;BME280;3335;43.198;27.918;2022-10-04T04:07:43;150330.78;;;12.31;100.00
6599;BME280;3335;43.198;27.918;2022-10-04T04:10:17;150269.47;;;12.06;100.00
6599;BME280;3335;43.198;27.918;2022-10-04T04:12:53;150318.25;;;12.25;100.00
6599;BME280;3335;43.198;27.918;2022-10-04T04:15:27;150304.50;;;12.20;100.00
6599;BME280;3335;43.198;27.918;2022-10-04T04:17:58;150314.50;;;12.24;100.00
6599;BME280;3335;43.198;27.918;2022-10-04T04:20:29;150309.47;;;12.22;100.00
6599;BME280;3335;43.198;27.918;2022-10-04T04:23:11;150311.97;;;12.23;100.00
6599;BME280;3335;43.198;27.918;2022-10-04T04:25:47;150330.78;;;12.31;100.00
6599;BME280;3335;43.198;27.918;2022-10-04T04:28:24;150313.25;;;12.23;100.00
6599;BME280;3335;43.198;27.918;2022-10-04T04:30:56;150290.75;;;12.14;100.00
6599;BME280;3335;43.198;27.918;2022-10-04T04:33:28;150313.25;;;12.23;100.00
6599;BME280;3335;43.198;27.918;2022-10-04T04:36:04;150191.94;;;11.74;100.00
6599;BME280;3335;43.198;27.918;2022-10-04T04:38:32;150338.25;;;12.34;100.00
6599;BME280;3335;43.198;27.918;2022-10-04T04:41:06;150345.75;;;12.37;100.00
6599;BME280;3335;43.198;27.918;2022-10-04T04:43:42;150320.72;;;12.26;100.00
6599;BME280;3335;43.198;27.918;2022-10-04T04:46:10;150327.00;;;12.29;100.00
6599;BME280;3335;43.198;27.918;2022-10-04T04:48:42;150328.25;;;12.30;100.00
6599;BME280;3335;43.198;27.918;2022-10-04T04:51:19;150313.25;;;12.23;100.00
6599;BME280;3335;43.198;27.918;2022-10-04T04:53:49;150284.44;;;12.12;100.00
6599;BME280;3335;43.198;27.918;2022-10-04T04:56:18;150328.25;;;12.30;100.00
6599;BME280;3335;43.198;27.918;2022-10-04T04:58:51;150320.72;;;12.26;100.00
6599;BME280;3335;43.198;27.918;2022-10-04T05:01:23;150150.66;;;11.58;100.00
6599;BME280;3335;43.198;27.918;2022-10-04T05:04:00;150303.25;;;12.19;100.00
6599;BME280;3335;43.198;27.918;2022-10-04T05:06:29;150280.72;;;12.10;100.00
6599;BME280;3335;43.198;27.918;2022-10-04T05:08:57;150280.72;;;12.10;100.00
6599;BME280;3335;43.198;27.918;2022-10-04T05:11:27;150313.25;;;12.23;100.00
6599;BME280;3335;43.198;27.918;2022-10-04T05:13:58;150308.22;;;12.21;100.00
6599;BME280;3335;43.198;27.918;2022-10-04T05:16:33;150272.00;;;12.07;100.00
6599;BME280;3335;43.198;27.918;2022-10-04T05:19:06;150335.75;;;12.33;100.00
6599;BME280;3335;43.198;27.918;2022-10-04T05:21:35;150340.78;;;12.35;100.00
6599;BME280;3335;43.198;27.918;2022-10-04T05:24:11;150377.06;;;12.49;100.00
6599;BME280;3335;43.198;27.918;2022-10-04T05:26:40;150365.81;;;12.45;100.00
6599;BME280;3335;43.198;27.918;2022-10-04T05:29:15;150337.00;;;12.33;100.00
6599;BME280;3335;43.198;27.918;2022-10-04T05:31:46;150383.28;;;12.52;100.00
6599;BME280;3335;43.198;27.918;2022-10-04T05:34:20;150408.31;;;12.62;100.00
6599;BME280;3335;43.198;27.918;2022-10-04T05:39:53;150425.81;;;12.69;100.00
6599;BME280;3335;43.198;27.918;2022-10-04T05:42:35;150443.34;;;12.76;100.00
6599;BME280;3335;43.198;27.918;2022-10-04T05:45:15;150450.84;;;12.79;100.00
6599;BME280;3335;43.198;27.918;2022-10-04T05:47:45;150445.88;;;12.77;100.00
6599;BME280;3335;43.198;27.918;2022-10-04T05:50:18;150473.34;;;12.88;100.00
6599;BME280;3335;43.198;27.918;2022-10-04T05:52:49;150488.38;;;12.94;100.00
6599;BME280;3335;43.198;27.918;2022-10-04T05:55:23;150498.38;;;12.98;100.00
6599;BME280;3335;43.198;27.918;2022-10-04T05:58:06;150378.25;;;12.50;100.00
6599;BME280;3335;43.198;27.918;2022-10-04T06:01:07;150523.44;;;13.08;100.00
6599;BME280;3335;43.198;27.918;2022-10-04T06:03:48;150541.03;;;13.16;100.00
6599;BME280;3335;43.198;27.918;2022-10-04T06:06:28;150534.75;;;13.13;100.00
6599;BME280;3335;43.198;27.918;2022-10-04T06:09:09;150578.53;;;13.31;100.00
6599;BME280;3335;43.198;27.918;2022-10-04T06:11:51;150606.09;;;13.42;100.00
6599;BME280;3335;43.198;27.918;2022-10-04T06:14:42;150639.88;;;13.55;100.00
6599;BME280;3335;43.198;27.918;2022-10-04T06:17:32;150616.09;;;13.46;100.00
6599;BME280;3335;43.198;27.918;2022-10-04T06:20:28;150520.91;;;13.07;100.00
6599;BME280;3335;43.198;27.918;2022-10-04T06:23:05;150648.63;;;13.59;100.00
6599;BME280;3335;43.198;27.918;2022-10-04T06:25:43;150606.09;;;13.42;100.00
6599;BME280;3335;43.198;27.918;2022-10-04T06:28:16;150656.19;;;13.62;100.00
6599;BME280;3335;43.198;27.918;2022-10-04T06:30:57;150673.69;;;13.69;100.00
6599;BME280;3335;43.198;27.918;2022-10-04T06:33:41;150697.47;;;13.79;100.00
6599;BME280;3335;43.198;27.918;2022-10-04T06:36:31;150653.66;;;13.61;100.00
6599;BME280;3335;43.198;27.918;2022-10-04T06:39:27;150703.75;;;13.81;100.00
6599;BME280;3335;43.198;27.918;2022-10-04T06:42:22;150693.75;;;13.77;100.00
6599;BME280;3335;43.198;27.918;2022-10-04T06:45:09;150731.28;;;13.92;100.00
6599;BME280;3335;43.198;27.918;2022-10-04T06:48:04;150735.03;;;13.94;100.00
6599;BME280;3335;43.198;27.918;2022-10-04T06:50:41;150708.75;;;13.83;100.00
6599;BME280;3335;43.198;27.918;2022-10-04T06:53:20;150741.34;;;13.96;100.00
6599;BME280;3335;43.198;27.918;2022-10-04T06:59:17;150743.81;;;13.97;100.00
6599;BME280;3335;43.198;27.918;2022-10-04T07:01:49;150752.59;;;14.01;100.00
6599;BME280;3335;43.198;27.918;2022-10-04T07:04:30;150780.13;;;14.12;100.00
6599;BME280;3335;43.198;27.918;2022-10-04T07:07:13;150783.91;;;14.14;100.00
6599;BME280;3335;43.198;27.918;2022-10-04T07:09:54;150812.72;;;14.25;100.00
6599;BME280;3335;43.198;27.918;2022-10-04T07:12:23;150683.75;;;13.73;100.00
6599;BME280;3335;43.198;27.918;2022-10-04T07:14:53;150852.84;;;14.41;100.00
6599;BME280;3335;43.198;27.918;2022-10-04T07:17:28;150497.13;;;12.98;100.00
6599;BME280;3335;43.198;27.918;2022-10-04T07:19:57;150969.34;;;14.88;100.00
6599;BME280;3335;43.198;27.918;2022-10-04T07:22:29;150989.44;;;14.97;100.00
6599;BME280;3335;43.198;27.918;2022-10-04T07:25:14;150904.22;;;14.62;100.00
6599;BME280;3335;43.198;27.918;2022-10-04T07:27:51;151042.03;;;15.18;100.00
6599;BME280;3335;43.198;27.918;2022-10-04T07:30:42;151077.13;;;15.32;100.00
6599;BME280;3335;43.198;27.918;2022-10-04T07:33:15;151117.28;;;15.48;100.00
6599;BME280;3335;43.198;27.918;2022-10-04T07:35:47;151137.38;;;15.56;100.00
6599;BME280;3335;43.198;27.918;2022-10-04T07:38:22;151158.69;;;15.65;100.00
6599;BME280;3335;43.198;27.918;2022-10-04T07:41:05;151195.03;;;15.80;100.00
6599;BME280;3335;43.198;27.918;2022-10-04T07:43:39;151202.53;;;15.83;100.00
6599;BME280;3335;43.198;27.918;2022-10-04T07:46:16;151177.50;;;15.72;100.00
6599;BME280;3335;43.198;27.918;2022-10-04T07:48:45;151077.13;;;15.32;100.00
6599;BME280;3335;43.198;27.918;2022-10-04T07:51:20;151222.66;;;15.91;100.00
6599;BME280;3335;43.198;27.918;2022-10-04T07:53:54;151272.78;;;16.11;100.00
6599;BME280;3335;43.198;27.918;2022-10-04T07:56:29;151275.28;;;16.12;100.00
6599;BME280;3335;43.198;27.918;2022-10-04T07:59:12;151225.16;;;15.92;100.00
6599;BME280;3335;43.198;27.918;2022-10-04T08:01:46;151333.00;;;16.35;100.00
6599;BME280;3335;43.198;27.918;2022-10-04T08:04:31;151379.41;;;16.54;100.00
6599;BME280;3335;43.198;27.918;2022-10-04T08:07:12;151398.28;;;16.61;100.00
6599;BME280;3335;43.198;27.918;2022-10-04T08:09:47;151358.06;;;16.45;100.00
6599;BME280;3335;43.198;27.918;2022-10-04T08:12:21;151438.41;;;16.78;100.00
6599;BME280;3335;43.198;27.918;2022-10-04T08:14:54;151371.88;;;16.51;100.00
6599;BME280;3335;43.198;27.918;2022-10-04T08:17:36;151481.09;;;16.95;100.00
6599;BME280;3335;43.198;27.918;2022-10-04T08:20:22;151299.13;;;16.22;100.00
6599;BME280;3335;43.198;27.918;2022-10-04T08:23:11;151541.34;;;17.19;100.00
6599;BME280;3335;43.198;27.918;2022-10-04T08:25:51;151547.59;;;17.22;100.00
6599;BME280;3335;43.198;27.918;2022-10-04T08:28:34;151558.91;;;17.26;100.00
6599;BME280;3335;43.198;27.918;2022-10-04T08:31:31;151606.63;;;17.45;100.00
6599;BME280;3335;43.198;27.918;2022-10-04T08:34:17;151586.53;;;17.37;100.00
6599;BME280;3335;43.198;27.918;2022-10-04T08:37:00;151634.25;;;17.57;100.00
6599;BME280;3335;43.198;27.918;2022-10-04T08:39:44;151631.72;;;17.56;100.00
6599;BME280;3335;43.198;27.918;2022-10-04T08:45:48;151556.38;;;17.25;100.00
6599;BME280;3335;43.198;27.918;2022-10-04T08:48:41;151710.84;;;17.87;100.00
6599;BME280;3335;43.198;27.918;2022-10-04T08:51:48;151754.84;;;18.05;100.00
6599;BME280;3335;43.198;27.918;2022-10-04T08:57:57;151859.09;;;18.47;100.00
6599;BME280;3335;43.198;27.918;2022-10-04T09:00:37;151815.09;;;18.29;100.00
6599;BME280;3335;43.198;27.918;2022-10-04T09:06:31;151747.28;;;18.02;100.00
6599;BME280;3335;43.198;27.918;2022-10-04T09:09:34;151993.56;;;19.01;100.00
6599;BME280;3335;43.198;27.918;2022-10-04T09:12:32;152011.16;;;19.08;100.00
6599;BME280;3335;43.198;27.918;2022-10-04T09:18:20;151929.50;;;18.75;100.00
6599;BME280;3335;43.198;27.918;2022-10-04T09:20:54;151963.41;;;18.89;100.00
6599;BME280;3335;43.198;27.918;2022-10-04T09:24:17;152056.41;;;19.27;100.00
6599;BME280;3335;43.198;27.918;2022-10-04T09:26:51;152091.59;;;19.41;100.00
6599;BME280;3335;43.198;27.918;2022-10-04T09:29:58;152084.06;;;19.38;100.00
6599;BME280;3335;43.198;27.918;2022-10-04T09:32:54;152133.16;;;19.57;100.00
6599;BME280;3335;43.198;27.918;2022-10-04T09:35:53;152189.72;;;19.80;100.00
6599;BME280;3335;43.198;27.918;2022-10-04T09:39:07;152217.34;;;19.91;100.00
6599;BME280;3335;43.198;27.918;2022-10-04T09:45:05;152296.63;;;20.23;100.00
6599;BME280;3335;43.198;27.918;2022-10-04T09:47:51;152276.47;;;20.15;100.00
6599;BME280;3335;43.198;27.918;2022-10-04T09:50:33;152251.34;;;20.05;100.00
6599;BME280;3335;43.198;27.918;2022-10-04T09:53:19;152185.94;;;19.79;100.00
6599;BME280;3335;43.198;27.918;2022-10-04T09:56:01;152148.22;;;19.63;100.00
6599;BME280;3335;43.198;27.918;2022-10-04T09:58:56;151950.84;;;18.84;100.00
6599;BME280;3335;43.198;27.918;2022-10-04T10:01:38;152031.25;;;19.16;100.00
6599;BME280;3335;43.198;27.918;2022-10-04T10:04:31;151965.94;;;18.90;100.00
6599;BME280;3335;43.198;27.918;2022-10-04T10:07:19;151955.91;;;18.86;100.00
6599;BME280;3335;43.198;27.918;2022-10-04T10:09:53;151958.38;;;18.87;100.00
6599;BME280;3335;43.198;27.918;2022-10-04T10:13:08;151900.56;;;18.64;100.00
6599;BME280;3335;43.198;27.918;2022-10-04T10:16:04;151935.75;;;18.78;100.00
6599;BME280;3335;43.198;27.918;2022-10-04T10:18:45;151930.75;;;18.76;100.00
6599;BME280;3335;43.198;27.918;2022-10-04T10:21:43;151812.63;;;18.28;100.00
6599;BME280;3335;43.198;27.918;2022-10-04T10:24:28;151722.16;;;17.92;100.00
6599;BME280;3335;43.198;27.918;2022-10-04T10:27:18;151734.72;;;17.97;100.00
6599;BME280;3335;43.198;27.918;2022-10-04T10:30:04;151680.75;;;17.75;100.00
6599;BME280;3335;43.198;27.918;2022-10-04T10:33:01;151690.78;;;17.79;100.00
6599;BME280;3335;43.198;27.918;2022-10-04T10:35:46;151614.19;;;17.48;100.00
6599;BME280;3335;43.198;27.918;2022-10-04T10:38:30;151375.66;;;16.52;100.00
6599;BME280;3335;43.198;27.918;2022-10-04T10:41:29;151670.72;;;17.71;100.00
6599;BME280;3335;43.198;27.918;2022-10-04T10:44:14;151687.00;;;17.78;100.00
6599;BME280;3335;43.198;27.918;2022-10-04T10:46:56;151499.91;;;17.02;100.00
6599;BME280;3335;43.198;27.918;2022-10-04T10:49:38;151578.97;;;17.34;100.00
6599;BME280;3335;43.198;27.918;2022-10-04T10:55:55;151614.19;;;17.48;100.00
6599;BME280;3335;43.198;27.918;2022-10-04T10:58:52;151685.75;;;17.77;100.00
6599;BME280;3335;43.198;27.918;2022-10-04T11:01:43;151658.16;;;17.66;100.00
6599;BME280;3335;43.198;27.918;2022-10-04T11:04:50;151720.91;;;17.91;100.00
6599;BME280;3335;43.198;27.918;2022-10-04T11:07:46;151732.25;;;17.96;100.00
6599;BME280;3335;43.198;27.918;2022-10-04T11:25:58;151772.41;;;18.12;100.00
6599;BME280;3335;43.198;27.918;2022-10-04T11:28:36;151751.06;;;18.04;100.00
6599;BME280;3335;43.198;27.918;2022-10-04T11:37:16;151758.59;;;18.07;100.00
6599;BME280;3335;43.198;27.918;2022-10-04T11:39:54;151718.44;;;17.90;100.00
6599;BME280;3335;43.198;27.918;2022-10-04T11:42:41;151692.03;;;17.80;100.00
6599;BME280;3335;43.198;27.918;2022-10-04T11:45:32;151712.13;;;17.88;100.00
6599;BME280;3335;43.198;27.918;2022-10-04T11:48:14;151704.59;;;17.85;100.00
6599;BME280;3335;43.198;27.918;2022-10-04T11:57:27;151682.00;;;17.76;100.00
6599;BME280;3335;43.198;27.918;2022-10-04T12:00:07;151734.72;;;17.97;100.00
6599;BME280;3335;43.198;27.918;2022-10-04T12:02:55;151621.69;;;17.52;100.00
6599;BME280;3335;43.198;27.918;2022-10-04T12:05:52;151729.72;;;17.95;100.00
6599;BME280;3335;43.198;27.918;2022-10-04T12:08:31;151709.59;;;17.87;100.00
6599;BME280;3335;43.198;27.918;2022-10-04T12:11:41;151553.91;;;17.24;100.00
6599;BME280;3335;43.198;27.918;2022-10-04T12:14:40;151582.75;;;17.36;100.00
6599;BME280;3335;43.198;27.918;2022-10-04T12:17:35;151353.09;;;16.43;100.00
6599;BME280;3335;43.198;27.918;2022-10-04T12:20:29;151599.09;;;17.42;100.00
6599;BME280;3335;43.198;27.918;2022-10-04T12:23:30;151722.16;;;17.92;100.00
6599;BME280;3335;43.198;27.918;2022-10-04T12:26:12;151710.84;;;17.87;100.00
6599;BME280;3335;43.198;27.918;2022-10-04T12:29:05;151813.88;;;18.29;100.00
6599;BME280;3335;43.198;27.918;2022-10-04T12:31:41;151957.09;;;18.87;100.00
6599;BME280;3335;43.198;27.918;2022-10-04T12:34:16;152058.94;;;19.28;100.00
6599;BME280;3335;43.198;27.918;2022-10-04T12:37:12;152192.25;;;19.81;100.00
6599;BME280;3335;43.198;27.918;2022-10-04T12:42:59;152375.88;;;20.55;100.00
6599;BME280;3335;43.198;27.918;2022-10-04T12:45:42;152149.47;;;19.64;100.00
6599;BME280;3335;43.198;27.918;2022-10-04T12:48:23;152207.31;;;19.87;100.00
6599;BME280;3335;43.198;27.918;2022-10-04T12:51:00;152144.47;;;19.62;100.00
6599;BME280;3335;43.198;27.918;2022-10-04T12:53:40;151958.38;;;18.87;100.00
6599;BME280;3335;43.198;27.918;2022-10-04T12:56:18;151999.88;;;19.04;100.00
6599;BME280;3335;43.198;27.918;2022-10-04T12:59:01;152016.16;;;19.10;100.00
6599;BME280;3335;43.198;27.918;2022-10-04T13:01:37;152058.94;;;19.28;100.00
6599;BME280;3335;43.198;27.918;2022-10-04T13:04:25;152041.31;;;19.20;100.00
6599;BME280;3335;43.198;27.918;2022-10-04T13:07:21;152012.44;;;19.09;100.00
6599;BME280;3335;43.198;27.918;2022-10-04T13:10:00;151822.66;;;18.32;100.00
6599;BME280;3335;43.198;27.918;2022-10-04T13:12:37;151953.38;;;18.85;100.00
6599;BME280;3335;43.198;27.918;2022-10-04T13:15:21;151792.50;;;18.20;100.00
6599;BME280;3335;43.198;27.918;2022-10-04T13:17:59;151847.78;;;18.43;100.00
6599;BME280;3335;43.198;27.918;2022-10-04T13:20:39;151825.19;;;18.33;100.00
6599;BME280;3335;43.198;27.918;2022-10-04T13:23:23;151815.09;;;18.29;100.00
6599;BME280;3335;43.198;27.918;2022-10-04T13:26:05;151668.19;;;17.70;100.00
6599;BME280;3335;43.198;27.918;2022-10-04T13:28:45;151643.06;;;17.60;100.00
6599;BME280;3335;43.198;27.918;2022-10-04T13:31:22;151797.53;;;18.22;100.00
6599;BME280;3335;43.198;27.918;2022-10-04T13:33:58;151732.25;;;17.96;100.00
6599;BME280;3335;43.198;27.918;2022-10-04T13:36:37;151810.09;;;18.27;100.00
6599;BME280;3335;43.198;27.918;2022-10-04T13:39:28;151817.63;;;18.30;100.00
6599;BME280;3335;43.198;27.918;2022-10-04T13:42:14;151468.56;;;16.90;100.00
6599;BME280;3335;43.198;27.918;2022-10-04T13:45:07;151820.13;;;18.31;100.00
6599;BME280;3335;43.198;27.918;2022-10-04T13:47:55;151895.59;;;18.62;100.00
6599;BME280;3335;43.198;27.918;2022-10-04T13:50:35;151973.47;;;18.93;100.00
6599;BME280;3335;43.198;27.918;2022-10-04T13:53:14;151905.63;;;18.66;100.00
6599;BME280;3335;43.198;27.918;2022-10-04T13:56:05;151925.72;;;18.74;100.00
6599;BME280;3335;43.198;27.918;2022-10-04T13:59:01;151856.56;;;18.46;100.00
6599;BME280;3335;43.198;27.918;2022-10-04T14:04:41;151762.38;;;18.08;100.00
6599;BME280;3335;43.198;27.918;2022-10-04T14:10:22;151651.84;;;17.64;100.00
6599;BME280;3335;43.198;27.918;2022-10-04T14:13:32;151641.81;;;17.60;100.00
6599;BME280;3335;43.198;27.918;2022-10-04T14:16:42;151640.53;;;17.59;100.00
6599;BME280;3335;43.198;27.918;2022-10-04T14:22:48;151624.22;;;17.53;100.00
6599;BME280;3335;43.198;27.918;2022-10-04T14:25:44;151659.41;;;17.67;100.00
6599;BME280;3335;43.198;27.918;2022-10-04T14:31:50;151629.22;;;17.55;100.00
6599;BME280;3335;43.198;27.918;2022-10-04T14:34:44;151611.66;;;17.47;100.00
6599;BME280;3335;43.198;27.918;2022-10-04T14:40:58;151526.28;;;17.13;100.00
6599;BME280;3335;43.198;27.918;2022-10-04T14:44:12;151558.91;;;17.26;100.00
6599;BME280;3335;43.198;27.918;2022-10-04T14:46:50;151578.97;;;17.34;100.00
6599;BME280;3335;43.198;27.918;2022-10-04T14:49:35;151560.16;;;17.27;100.00
6599;BME280;3335;43.198;27.918;2022-10-04T14:52:18;151508.69;;;17.06;100.00
6599;BME280;3335;43.198;27.918;2022-10-04T14:54:51;151568.94;;;17.30;100.00
6599;BME280;3335;43.198;27.918;2022-10-04T14:57:36;151556.38;;;17.25;100.00
6599;BME280;3335;43.198;27.918;2022-10-04T15:00:21;151350.56;;;16.42;100.00
6599;BME280;3335;43.198;27.918;2022-10-04T15:03:16;151506.22;;;17.05;100.00
6599;BME280;3335;43.198;27.918;2022-10-04T15:06:11;151553.91;;;17.24;100.00
6599;BME280;3335;43.198;27.918;2022-10-04T15:11:41;151596.56;;;17.41;100.00
6599;BME280;3335;43.198;27.918;2022-10-04T15:14:28;151597.84;;;17.42;100.00
6599;BME280;3335;43.198;27.918;2022-10-04T15:17:00;151425.88;;;16.73;100.00